createdAt,value
2022-08-22T00:01:29.346Z,98689.22
2022-08-22T00:02:56.170Z,98819.78
2022-08-22T00:02:57.071Z,98756.81
2022-08-22T00:03:04.494Z,98814.22
2022-08-22T00:04:37.736Z,98679.88
2022-08-22T00:07:16.576Z,98682.19
2022-08-22T00:09:52.873Z,98694.25
2022-08-22T00:12:33.279Z,98695.44
2022-08-22T00:15:42.323Z,98694.62
2022-08-22T00:18:30.173Z,98697.34
2022-08-22T00:21:18.603Z,98692.72
2022-08-22T00:24:28.803Z,98692.63
2022-08-22T00:27:04.114Z,98698.72
2022-08-22T00:29:54.988Z,98700.97
2022-08-22T00:32:25.543Z,98703.09
2022-08-22T00:35:00.125Z,98701.62
2022-08-22T00:38:05.581Z,98700.34
2022-08-22T00:40:35.766Z,98701.91
2022-08-22T00:43:18.709Z,98697.37
2022-08-22T00:46:07.984Z,98697.37
2022-08-22T00:49:00.377Z,98699.34
2022-08-22T00:51:43.289Z,98695.53
2022-08-22T00:55:00.989Z,98701.75
2022-08-22T00:58:01.925Z,98704.06
2022-08-22T01:00:42.352Z,98692.69
2022-08-22T01:03:38.146Z,98698.16
2022-08-22T01:06:12.221Z,98705.59
2022-08-22T01:08:48.508Z,98704.09
2022-08-22T01:11:35.361Z,98696.03
2022-08-22T01:14:34.380Z,98698.72
2022-08-22T01:17:15.360Z,98700.75
2022-08-22T01:19:46.272Z,98698.63
2022-08-22T01:22:39.299Z,98700.50
2022-08-22T01:25:44.274Z,98699.78
2022-08-22T01:29:04.759Z,98701.34
2022-08-22T01:32:26.659Z,98698.16
2022-08-22T01:35:34.815Z,98701.38
2022-08-22T01:38:57.221Z,98701.66
2022-08-22T01:41:29.103Z,98697.37
2022-08-22T01:44:08.651Z,98699.66
2022-08-22T01:46:51.330Z,98706.63
2022-08-22T01:49:35.004Z,98705.91
2022-08-22T01:52:19.833Z,98698.78
2022-08-22T01:55:01.881Z,98697.19
2022-08-22T01:57:29.943Z,98689.50
2022-08-22T02:00:01.172Z,98693.00
2022-08-22T02:02:41.229Z,98700.03
2022-08-22T02:05:31.620Z,98697.37
2022-08-22T02:08:19.330Z,98686.47
2022-08-22T02:11:09.848Z,98688.72
2022-08-22T02:14:00.464Z,98699.53
2022-08-22T02:16:46.245Z,98689.81
2022-08-22T02:19:15.011Z,98692.03
2022-08-22T02:22:13.282Z,98695.25
2022-08-22T02:24:47.926Z,98682.44
2022-08-22T02:27:51.534Z,98685.50
2022-08-22T02:30:22.277Z,98687.56
2022-08-22T02:33:10.313Z,98683.59
2022-08-22T02:35:47.161Z,98690.28
2022-08-22T02:38:24.255Z,98693.00
2022-08-22T02:41:10.870Z,98691.41
2022-08-22T02:43:55.202Z,98690.72
2022-08-22T02:46:41.604Z,98684.47
2022-08-22T02:49:23.501Z,98684.88
2022-08-22T02:51:54.987Z,98689.13
2022-08-22T02:54:48.005Z,98685.66
2022-08-22T02:57:31.259Z,98688.72
2022-08-22T03:00:32.828Z,98698.84
2022-08-22T03:03:23.797Z,98695.75
2022-08-22T03:06:05.998Z,98688.00
2022-08-22T03:08:38.919Z,98699.31
2022-08-22T03:11:26.767Z,98690.75
2022-08-22T03:14:12.640Z,98690.06
2022-08-22T03:16:49.939Z,98689.94
2022-08-22T03:19:48.707Z,98693.31
2022-08-22T03:22:22.940Z,98691.34
2022-08-22T03:25:44.734Z,98690.87
2022-08-22T03:28:21.708Z,98696.69
2022-08-22T03:30:57.377Z,98699.13
2022-08-22T03:33:28.335Z,98698.37
2022-08-22T03:36:22.519Z,98703.78
2022-08-22T03:39:17.200Z,98707.31
2022-08-22T03:41:48.041Z,98705.75
2022-08-22T03:44:56.680Z,98701.56
2022-08-22T03:47:55.034Z,98703.53
2022-08-22T03:50:39.497Z,98707.81
2022-08-22T03:53:19.465Z,98710.94
2022-08-22T03:56:16.493Z,98712.87
2022-08-22T03:59:09.945Z,98712.56
2022-08-22T04:01:56.271Z,98714.13
2022-08-22T04:04:57.004Z,98716.84
2022-08-22T04:07:46.213Z,98721.16
2022-08-22T04:10:50.067Z,98711.81
2022-08-22T04:13:39.973Z,98712.56
2022-08-22T04:16:51.819Z,98719.97
2022-08-22T04:20:16.661Z,98716.94
2022-08-22T04:22:59.414Z,98724.22
2022-08-22T04:28:54.169Z,98719.72
2022-08-22T04:31:35.902Z,98731.34
2022-08-22T04:34:14.473Z,98736.06
2022-08-22T04:36:50.851Z,98736.09
2022-08-22T04:39:30.671Z,98731.38
2022-08-22T04:42:31.175Z,98734.94
2022-08-22T04:45:35.244Z,98733.06
2022-08-22T04:48:29.764Z,98726.41
2022-08-22T04:51:23.834Z,98731.88
2022-08-22T04:54:17.911Z,98736.47
2022-08-22T04:57:30.225Z,98731.50
2022-08-22T05:00:18.320Z,98743.59
2022-08-22T05:03:12.415Z,98737.84
2022-08-22T05:06:01.712Z,98728.59
2022-08-22T05:08:53.805Z,98736.44
2022-08-22T05:11:42.820Z,98739.50
2022-08-22T05:14:40.361Z,98736.00
2022-08-22T05:17:29.495Z,98755.16
2022-08-22T05:20:19.919Z,98744.94
2022-08-22T05:23:17.907Z,98753.91
2022-08-22T05:26:06.538Z,98751.25
2022-08-22T05:28:59.995Z,98757.91
2022-08-22T05:31:51.860Z,98773.50
2022-08-22T05:34:41.835Z,98765.41
2022-08-22T05:37:44.295Z,98759.94
2022-08-22T05:40:33.766Z,98765.78
2022-08-22T05:43:25.916Z,98772.41
2022-08-22T05:46:27.155Z,98768.56
2022-08-22T05:49:19.095Z,98776.31
2022-08-22T05:52:24.912Z,98776.38
2022-08-22T05:55:36.653Z,98779.50
2022-08-22T05:58:39.761Z,98786.88
2022-08-22T06:01:34.749Z,98784.56
2022-08-22T06:04:34.770Z,98784.97
2022-08-22T06:07:27.619Z,98793.94
2022-08-22T06:10:24.856Z,98793.19
2022-08-22T06:13:23.567Z,98790.91
2022-08-22T06:16:38.841Z,98794.06
2022-08-22T06:19:37.030Z,98795.19
2022-08-22T06:22:29.481Z,98795.63
2022-08-22T06:25:33.169Z,98797.56
2022-08-22T06:28:24.951Z,98790.50
2022-08-22T06:31:23.593Z,98796.75
2022-08-22T06:34:17.973Z,98798.72
2022-08-22T06:37:08.484Z,98790.94
2022-08-22T06:39:56.901Z,98789.75
2022-08-22T06:42:48.128Z,98790.16
2022-08-22T06:45:36.086Z,98790.16
2022-08-22T06:48:23.902Z,98803.03
2022-08-22T06:51:12.427Z,98806.22
2022-08-22T06:54:03.952Z,98805.44
2022-08-22T06:56:52.834Z,98802.28
2022-08-22T06:59:41.176Z,98811.66
2022-08-22T07:02:35.988Z,98819.06
2022-08-22T07:05:27.197Z,98813.56
2022-08-22T07:08:18.716Z,98817.88
2022-08-22T07:11:28.849Z,98819.06
2022-08-22T07:14:18.242Z,98820.22
2022-08-22T07:17:06.873Z,98819.09
2022-08-22T07:20:23.271Z,98821.81
2022-08-22T07:23:13.289Z,98823.78
2022-08-22T07:26:26.492Z,98823.72
2022-08-22T07:29:14.018Z,98823.72
2022-08-22T07:32:32.805Z,98824.50
2022-08-22T07:35:21.737Z,98819.44
2022-08-22T07:38:42.335Z,98818.25
2022-08-22T07:41:51.192Z,98827.25
2022-08-22T07:44:58.176Z,98825.31
2022-08-22T07:47:51.657Z,98823.34
2022-08-22T07:51:06.067Z,98833.16
2022-08-22T07:54:07.042Z,98830.38
2022-08-22T07:57:31.746Z,98830.38
2022-08-22T08:00:21.226Z,98836.56
2022-08-22T08:03:09.464Z,98838.09
2022-08-22T08:05:57.598Z,98842.81
2022-08-22T08:08:45.652Z,98843.56
2022-08-22T08:11:39.592Z,98844.31
2022-08-22T08:14:27.959Z,98847.44
2022-08-22T08:17:34.433Z,98844.00
2022-08-22T08:20:24.394Z,98840.06
2022-08-22T08:23:12.987Z,98840.44
2022-08-22T08:26:19.539Z,98843.50
2022-08-22T08:29:07.278Z,98839.12
2022-08-22T08:31:55.523Z,98839.91
2022-08-22T08:34:43.652Z,98841.47
2022-08-22T08:37:38.947Z,98837.44
2022-08-22T08:40:32.552Z,98838.94
2022-08-22T08:43:22.519Z,98839.00
2022-08-22T08:46:16.890Z,98844.94
2022-08-22T08:49:11.099Z,98837.91
2022-08-22T08:52:20.410Z,98839.56
2022-08-22T08:55:51.374Z,98839.19
2022-08-22T08:58:47.516Z,98833.28
2022-08-22T09:01:57.441Z,98835.16
2022-08-22T09:05:03.192Z,98842.19
2022-08-22T09:08:04.568Z,98842.59
2022-08-22T09:11:02.422Z,98842.25
2022-08-22T09:14:02.842Z,98841.47
2022-08-22T09:17:10.732Z,98843.00
2022-08-22T09:20:29.910Z,98841.84
2022-08-22T09:23:32.225Z,98844.56
2022-08-22T09:26:38.372Z,98848.84
2022-08-22T09:29:30.516Z,98849.28
2022-08-22T09:32:43.445Z,98848.47
2022-08-22T09:35:36.573Z,98856.00
2022-08-22T09:38:47.765Z,98860.28
2022-08-22T09:41:41.451Z,98861.47
2022-08-22T09:44:57.569Z,98861.09
2022-08-22T09:48:07.354Z,98858.37
2022-08-22T09:51:28.621Z,98868.44
2022-08-22T09:54:32.718Z,98877.81
2022-08-22T09:57:22.638Z,98868.91
2022-08-22T10:00:17.822Z,98873.53
2022-08-22T10:03:16.096Z,98865.78
2022-08-22T10:06:11.410Z,98874.31
2022-08-22T10:09:09.104Z,98864.78
2022-08-22T10:12:05.526Z,98864.66
2022-08-22T10:15:21.711Z,98859.53
2022-08-22T10:18:36.477Z,98855.91
2022-08-22T10:22:11.920Z,98855.34
2022-08-22T10:28:43.339Z,98849.81
2022-08-22T10:31:59.519Z,98849.81
2022-08-22T10:34:49.667Z,98856.13
2022-08-22T10:37:46.120Z,98849.44
2022-08-22T10:40:51.274Z,98850.22
2022-08-22T10:43:46.173Z,98845.66
2022-08-22T10:47:01.047Z,98855.03
2022-08-22T10:49:51.837Z,98842.75
2022-08-22T10:52:46.512Z,98846.41
2022-08-22T10:55:37.643Z,98848.97
2022-08-22T10:58:28.459Z,98844.66
2022-08-22T11:01:37.926Z,98853.31
2022-08-22T11:04:40.855Z,98857.00
2022-08-22T11:07:28.688Z,98856.38
2022-08-22T11:10:44.990Z,98846.91
2022-08-22T11:14:00.333Z,98842.97
2022-08-22T11:17:27.545Z,98840.94
2022-08-22T11:20:24.328Z,98836.06
2022-08-22T11:23:27.974Z,98837.81
2022-08-22T11:26:47.321Z,98835.50
2022-08-22T11:29:47.998Z,98836.38
2022-08-22T11:32:44.009Z,98837.34
2022-08-22T11:35:36.408Z,98838.09
2022-08-22T11:38:37.887Z,98838.66
2022-08-22T11:41:28.336Z,98828.66
2022-08-22T11:44:20.996Z,98835.78
2022-08-22T11:47:11.823Z,98836.53
2022-08-22T11:50:13.646Z,98836.78
2022-08-22T11:53:21.799Z,98829.34
2022-08-22T11:56:26.235Z,98822.13
2022-08-22T11:59:22.460Z,98823.22
2022-08-22T12:02:21.892Z,98816.50
2022-08-22T12:05:17.937Z,98810.75
2022-08-22T12:08:14.177Z,98813.81
2022-08-22T12:11:14.142Z,98809.34
2022-08-22T12:14:06.618Z,98805.06
2022-08-22T12:17:50.607Z,98810.81
2022-08-22T12:21:13.479Z,98800.72
2022-08-22T12:24:32.340Z,98800.22
2022-08-22T12:27:28.961Z,98808.75
2022-08-22T12:30:46.098Z,98800.47
2022-08-22T12:33:48.734Z,98808.16
2022-08-22T12:36:59.634Z,98804.84
2022-08-22T12:40:22.285Z,98803.03
2022-08-22T12:43:33.432Z,98801.50
2022-08-22T12:46:33.233Z,98797.13
2022-08-22T12:49:31.676Z,98793.19
2022-08-22T12:52:37.594Z,98797.25
2022-08-22T12:55:31.313Z,98797.03
2022-08-22T12:58:51.339Z,98801.38
2022-08-22T13:01:45.005Z,98808.94
2022-08-22T13:04:34.359Z,98801.84
2022-08-22T13:07:24.137Z,98801.56
2022-08-22T13:10:14.401Z,98801.22
2022-08-22T13:18:54.176Z,98809.41
2022-08-22T13:22:04.339Z,98795.97
2022-08-22T13:24:58.409Z,98809.44
2022-08-22T13:27:50.676Z,98804.03
2022-08-22T13:30:41.333Z,98808.09
2022-08-22T13:33:34.197Z,98813.09
2022-08-22T13:36:22.916Z,98816.41
2022-08-22T13:39:14.304Z,98811.69
2022-08-22T13:42:14.209Z,98813.25
2022-08-22T13:45:05.380Z,98818.47
2022-08-22T13:48:03.788Z,98819.00
2022-08-22T13:51:16.639Z,98818.13
2022-08-22T13:54:11.031Z,98822.25
2022-08-22T13:57:15.957Z,98819.37
2022-08-22T14:00:11.069Z,98824.09
2022-08-22T14:03:09.615Z,98820.41
2022-08-22T14:06:06.225Z,98820.31
2022-08-22T14:09:42.334Z,98817.59
2022-08-22T14:12:50.096Z,98809.81
2022-08-22T14:15:44.961Z,98811.37
2022-08-22T14:18:37.055Z,98803.66
2022-08-22T14:21:48.119Z,98802.34
2022-08-22T14:24:45.544Z,98803.28
2022-08-22T14:27:37.225Z,98796.63
2022-08-22T14:30:36.587Z,98799.06
2022-08-22T14:33:39.866Z,98799.38
2022-08-22T14:37:11.332Z,98808.75
2022-08-22T14:40:10.789Z,98801.31
2022-08-22T14:43:31.894Z,98803.66
2022-08-22T14:46:29.869Z,98811.50
2022-08-22T14:49:25.770Z,98803.91
2022-08-22T14:52:38.405Z,98803.09
2022-08-22T14:55:28.270Z,98796.31
2022-08-22T14:58:26.523Z,98794.81
2022-08-22T15:01:19.095Z,98800.81
2022-08-22T15:04:11.644Z,98811.19
2022-08-22T15:07:00.179Z,98803.44
2022-08-22T15:10:23.240Z,98805.47
2022-08-22T15:13:10.876Z,98802.75
2022-08-22T15:16:05.699Z,98805.94
2022-08-22T15:18:55.724Z,98816.06
2022-08-22T15:21:45.271Z,98819.69
2022-08-22T15:24:32.922Z,98831.41
2022-08-22T15:27:21.174Z,98833.81
2022-08-22T15:30:18.599Z,98833.69
2022-08-22T15:33:43.471Z,98832.91
2022-08-22T15:36:31.246Z,98830.19
2022-08-22T15:39:28.365Z,98831.88
2022-08-22T15:42:25.127Z,98830.75
2022-08-22T15:45:28.937Z,98833.47
2022-08-22T15:48:33.205Z,98839.72
2022-08-22T15:51:52.712Z,98845.19
2022-08-22T15:54:51.060Z,98850.25
2022-08-22T15:57:40.498Z,98860.41
2022-08-22T16:00:33.870Z,98853.00
2022-08-22T16:03:30.795Z,98854.19
2022-08-22T16:06:42.554Z,98851.09
2022-08-22T16:09:42.715Z,98844.06
2022-08-22T16:12:31.889Z,98837.75
2022-08-22T16:15:52.841Z,98831.16
2022-08-22T16:18:41.762Z,98832.69
2022-08-22T16:21:29.495Z,98825.25
2022-08-22T16:24:16.902Z,98831.84
2022-08-22T16:27:22.856Z,98826.47
2022-08-22T16:30:14.689Z,98831.53
2022-08-22T16:33:03.019Z,98832.34
2022-08-22T16:36:32.427Z,98835.84
2022-08-22T16:39:58.586Z,98842.87
2022-08-22T16:42:53.297Z,98844.06
2022-08-22T16:45:43.250Z,98846.81
2022-08-22T16:48:34.587Z,98846.81
2022-08-22T16:51:22.442Z,98849.91
2022-08-22T16:54:13.173Z,98842.09
2022-08-22T16:57:23.845Z,98848.38
2022-08-22T17:00:22.296Z,98852.28
2022-08-22T17:03:26.598Z,98848.00
2022-08-22T17:06:40.311Z,98851.91
2022-08-22T17:09:56.733Z,98844.47
2022-08-22T17:12:54.505Z,98841.31
2022-08-22T17:15:55.291Z,98843.69
2022-08-22T17:18:45.947Z,98847.19
2022-08-22T17:21:53.953Z,98854.22
2022-08-22T17:25:03.733Z,98864.03
2022-08-22T17:28:02.468Z,98867.09
2022-08-22T17:31:12.972Z,98863.63
2022-08-22T17:34:18.437Z,98870.59
2022-08-22T17:37:51.346Z,98867.47
2022-08-22T17:40:55.781Z,98872.56
2022-08-22T17:44:01.443Z,98878.75
2022-08-22T17:46:57.523Z,98873.31
2022-08-22T17:49:54.807Z,98875.66
2022-08-22T17:52:50.961Z,98877.97
2022-08-22T17:55:53.691Z,98884.22
2022-08-22T17:59:09.860Z,98873.69
2022-08-22T18:02:15.928Z,98882.28
2022-08-22T18:05:21.592Z,98882.66
2022-08-22T18:09:13.275Z,98885.72
2022-08-22T18:11:43.300Z,98882.88
2022-08-22T18:14:36.421Z,98885.91
2022-08-22T18:17:35.521Z,98887.00
2022-08-22T18:20:33.497Z,98889.66
2022-08-22T18:23:40.556Z,98893.50
2022-08-22T18:26:31.299Z,98898.97
2022-08-22T18:29:26.591Z,98898.53
2022-08-22T18:32:33.706Z,98903.19
2022-08-22T18:35:27.118Z,98902.84
2022-08-22T18:38:22.985Z,98908.34
2022-08-22T18:41:15.455Z,98917.66
2022-08-22T18:44:20.650Z,98908.72
2022-08-22T18:47:16.138Z,98917.31
2022-08-22T18:50:31.906Z,98915.34
2022-08-22T18:53:36.374Z,98916.94
2022-08-22T18:56:38.193Z,98928.09
2022-08-22T18:59:43.336Z,98925.72
2022-08-22T19:03:00.765Z,98932.72
2022-08-22T19:06:24.126Z,98928.84
2022-08-22T19:09:19.093Z,98933.87
2022-08-22T19:12:36.521Z,98936.59
2022-08-22T19:15:30.103Z,98927.19
2022-08-22T19:18:29.345Z,98935.81
2022-08-22T19:21:24.885Z,98939.38
2022-08-22T19:24:36.896Z,98944.44
2022-08-22T19:27:31.237Z,98938.53
2022-08-22T19:30:43.439Z,98943.63
2022-08-22T19:33:41.285Z,98947.53
2022-08-22T19:36:32.321Z,98951.88
2022-08-22T19:39:38.678Z,98945.97
2022-08-22T19:42:32.399Z,98954.44
2022-08-22T19:45:26.594Z,98955.22
2022-08-22T19:48:14.730Z,98956.25
2022-08-22T19:51:07.616Z,98959.53
2022-08-22T19:54:16.377Z,98954.34
2022-08-22T19:57:20.677Z,98954.38
2022-08-22T20:00:19.715Z,98953.28
2022-08-22T20:03:22.793Z,98952.06
2022-08-22T20:06:44.341Z,98961.06
2022-08-22T20:09:48.382Z,98957.28
2022-08-22T20:12:41.131Z,98955.16
2022-08-22T20:15:31.399Z,98952.56
2022-08-22T20:19:05.080Z,98956.63
2022-08-22T20:22:00.680Z,98955.88
2022-08-22T20:24:53.897Z,98955.16
2022-08-22T20:27:50.779Z,98949.00
2022-08-22T20:30:42.532Z,98943.94
2022-08-22T20:33:39.664Z,98942.66
2022-08-22T20:36:28.664Z,98932.25
2022-08-22T20:39:22.781Z,98935.22
2022-08-22T20:42:14.077Z,98928.81
2022-08-22T20:45:12.048Z,98931.56
2022-08-22T20:48:00.500Z,98932.59
2022-08-22T20:50:48.653Z,98934.19
2022-08-22T20:53:36.431Z,98940.13
2022-08-22T20:57:01.001Z,98940.72
2022-08-22T20:59:58.960Z,98941.06
2022-08-22T21:02:53.531Z,98933.53
2022-08-22T21:05:44.317Z,98932.06
2022-08-22T21:08:32.145Z,98928.56
2022-08-22T21:11:22.753Z,98920.31
2022-08-22T21:14:24.857Z,98916.00
2022-08-22T21:17:25.620Z,98909.53
2022-08-22T21:20:20.152Z,98918.34
2022-08-22T21:23:12.755Z,98912.41
2022-08-22T21:26:03.790Z,98917.53
2022-08-22T21:29:01.387Z,98919.91
2022-08-22T21:32:04.806Z,98926.59
2022-08-22T21:34:53.186Z,98916.34
2022-08-22T21:37:45.604Z,98929.13
2022-08-22T21:40:35.645Z,98930.66
2022-08-22T21:43:29.912Z,98938.06
2022-08-22T21:46:25.336Z,98938.41
2022-08-22T21:49:39.454Z,98943.50
2022-08-22T21:52:28.800Z,98933.94
2022-08-22T21:55:34.559Z,98937.41
2022-08-22T21:58:36.941Z,98949.19
2022-08-22T22:01:28.202Z,98945.66
2022-08-22T22:04:16.396Z,98951.09
2022-08-22T22:07:03.963Z,98954.63
2022-08-22T22:09:54.932Z,98961.53
2022-08-22T22:12:44.581Z,98960.75
2022-08-22T22:15:45.034Z,98967.81
2022-08-22T22:18:33.172Z,98967.03
2022-08-22T22:21:21.676Z,98971.78
2022-08-22T22:24:09.226Z,98970.88
2022-08-22T22:26:57.533Z,98974.66
2022-08-22T22:29:45.122Z,98967.28
2022-08-22T22:32:33.080Z,98970.47
2022-08-22T22:35:20.648Z,98972.72
2022-08-22T22:38:08.819Z,98976.88
2022-08-22T22:40:56.350Z,98975.06
2022-08-22T22:43:44.229Z,98972.28
2022-08-22T22:46:31.797Z,98969.97
2022-08-22T22:49:19.737Z,98976.19
2022-08-22T22:52:07.314Z,98975.44
2022-08-22T22:54:59.480Z,98970.38
2022-08-22T22:57:47.039Z,98971.84
2022-08-22T23:00:35.679Z,98972.44
2022-08-22T23:03:23.348Z,98968.47
2022-08-22T23:06:12.743Z,98978.84
2022-08-22T23:09:00.304Z,98971.84
2022-08-22T23:11:48.144Z,98980.47
2022-08-22T23:14:35.826Z,98978.69
2022-08-22T23:17:23.670Z,98976.03
2022-08-22T23:20:11.362Z,98977.34
2022-08-22T23:22:59.326Z,98981.94
2022-08-22T23:25:46.889Z,98981.06
2022-08-22T23:28:34.844Z,98978.41
2022-08-22T23:31:34.682Z,98977.78
2022-08-22T23:34:25.334Z,98981.78
2022-08-22T23:37:15.475Z,98979.03
2022-08-22T23:40:04.629Z,98984.84
2022-08-22T23:42:52.152Z,98984.16
2022-08-22T23:45:40.009Z,98982.97
2022-08-22T23:48:28.056Z,98987.19
2022-08-22T23:51:23.055Z,98984.12
2022-08-22T23:54:11.221Z,98987.63
2022-08-22T23:57:01.082Z,98986.84
2022-08-22T23:59:57.710Z,98983.38
